Archival Weather

Tokyo Intl

Tokyo Intl, Japan (RJTT)

Report from: Friday, June 24, 2022 1:30 AM JST
Current time: Tuesday, August 16, 2022 11:07 AM JST

Current weather
Weather history
Weather forecast

Present weatherLight rain
Temperature23.0°C (73.4°F)
Dew point21.0°C (69.8°F)
Winds 8 kts (4.1 m/s, 9.2 mph) South (180°)
Visibility6.2 mi. (10 km)
Clouds Few clouds 600 ft. (183 m)
Ceiling: Broken clouds 900 ft. (274 m)
Broken clouds 1,500 ft. (457 m)
Altimeter29.83 in.Hg (1010 mB)
Relative humidity89 %
Density altitude1,376 ft. (419 m)
Remarks No significant changes expected in the next two hours
Flight conditions Instrument Meteorological Conditions
Raw dataRJTT 231630Z 18008KT 9999 -RA FEW006 BKN009 BKN015 23/21 Q1010 NOSIG
An error has occurred. This application may no longer respond until reloaded. Reload 🗙